fbpx

Weather

Glasgow International Airport – EGPF

METAR:

EGPF 181620Z AUTO VRB01KT 9999 BKN034 BKN048 19/12 Q1012


TAF:

TAF EGPF 181054Z 1812/1912 VRB04KT 9999 FEW010 SCT025 PROB40 TEMPO 1821/1824 7000 -RA BKN012 TEMPO 1900/1909 7000 -RA BKN012 PROB30 TEMPO 1900/1906 3000 RADZ BKN006 PROB30 TEMPO 1909/1912 7000 SHRA BKN012


Prestwick International Airport – EGPK

METAR:

EGPK 181620Z 28006KT 9999 SCT036 17/13 Q1012


TAF:

TAF EGPK 181054Z 1812/1912 23003KT 9999 FEW020 SCT045 PROB40 TEMPO 1820/1824 7000 -RA BKN012 TEMPO 1900/1909 7000 -RA BKN012 PROB30 TEMPO 1900/1906 3000 RADZ BKN006 PROB30 TEMPO 1909/1912 7000 SHRA BKN008

Call Now ButtonCall us now